Time;durP1;ratioP1;P1;durP2;ratioP2;P2;SDS_P1;SDS_P2;PMS_P1;PMS_P2;Temp;Humidity;BMP_temperature;BMP_pressure;BME280_temperature;BME280_humidity;BME280_pressure;Samples;Min_cycle;Max_cycle;Signal;HPM_P1;HPM_P2
2024/01/15 00:00:11;;;;;;;7.20;4.60;;;;;;;-0.16;84.55;94732.28;108186;1283;138375;-89
2024/01/15 00:02:39;;;;;;;7.10;4.90;;;;;;;-0.13;83.97;94744.05;108331;1277;22740;-85
2024/01/15 00:05:06;;;;;;;7.70;5.20;;;;;;;-0.13;84.02;94740.30;108496;1277;137694;-88
2024/01/15 00:07:35;;;;;;;9.50;5.70;;;;;;;-0.14;83.59;94741.25;109078;1277;22233;-88
2024/01/15 00:10:03;;;;;;;8.40;5.50;;;;;;;-0.16;84.17;94738.88;109096;1278;22569;-88
2024/01/15 00:12:31;;;;;;;7.10;5.00;;;;;;;-0.18;83.89;94732.13;108298;1277;137600;-86
2024/01/15 00:14:58;;;;;;;6.10;4.60;;;;;;;-0.18;84.13;94727.34;108414;1282;22569;-86
2024/01/15 00:17:25;;;;;;;7.00;4.80;;;;;;;-0.17;83.84;94722.31;108944;1282;137161;-87
2024/01/15 00:19:52;;;;;;;6.70;5.10;;;;;;;-0.16;83.33;94719.83;109001;1281;22572;-88
2024/01/15 00:22:22;;;;;;;4.70;4.00;;;;;;;-0.13;83.81;94716.83;109078;1282;22564;-88
2024/01/15 00:24:48;;;;;;;5.00;4.00;;;;;;;-0.09;83.30;94716.10;108947;1278;137478;-88
2024/01/15 00:27:15;;;;;;;6.10;4.30;;;;;;;-0.10;83.25;94715.84;109056;1280;24284;-87
2024/01/15 00:29:42;;;;;;;8.20;5.20;;;;;;;-0.08;83.46;94716.83;108916;1280;136416;-88
2024/01/15 00:32:09;;;;;;;6.80;4.60;;;;;;;-0.11;83.36;94707.96;108891;1282;25384;-87
2024/01/15 00:34:36;;;;;;;6.70;4.70;;;;;;;-0.10;83.81;94714.64;108925;1280;138533;-85
2024/01/15 00:37:03;;;;;;;7.10;5.50;;;;;;;-0.10;83.39;94711.22;108520;1279;23226;-86
2024/01/15 00:39:30;;;;;;;7.20;5.60;;;;;;;-0.09;83.36;94715.75;108428;1282;22525;-86
2024/01/15 00:41:57;;;;;;;9.10;5.40;;;;;;;-0.12;83.50;94710.10;108386;1277;138358;-87
2024/01/15 00:44:24;;;;;;;6.00;4.60;;;;;;;-0.12;83.78;94709.40;108542;1275;22515;-85
2024/01/15 00:46:51;;;;;;;9.50;5.40;;;;;;;-0.13;84.27;94710.55;108734;1275;137616;-85
2024/01/15 00:49:18;;;;;;;7.30;5.30;;;;;;;-0.17;84.50;94709.85;108769;1282;22563;-84
2024/01/15 00:51:44;;;;;;;8.20;5.10;;;;;;;-0.22;84.90;94710.96;108679;1281;22523;-85
2024/01/15 00:54:11;;;;;;;7.60;4.40;;;;;;;-0.25;85.22;94708.19;108739;1276;136910;-85
2024/01/15 00:56:38;;;;;;;5.30;4.30;;;;;;;-0.28;85.61;94705.58;108857;1279;22664;-85
2024/01/15 00:59:05;;;;;;;4.90;3.80;;;;;;;-0.30;85.71;94696.48;108328;1282;138210;-85
2024/01/15 01:01:31;;;;;;;4.50;3.70;;;;;;;-0.32;86.10;94704.98;108453;1268;22560;-85
2024/01/15 01:03:58;;;;;;;6.70;4.30;;;;;;;-0.33;86.18;94704.23;108327;1279;23956;-85
2024/01/15 01:06:25;;;;;;;7.50;4.60;;;;;;;-0.37;86.22;94689.77;108288;1283;137435;-86
2024/01/15 01:08:51;;;;;;;5.80;4.00;;;;;;;-0.39;86.64;94681.31;108299;1282;22555;-85
2024/01/15 01:11:20;;;;;;;6.40;4.50;;;;;;;-0.37;86.44;94676.25;108383;1278;138343;-86
2024/01/15 01:13:47;;;;;;;6.80;5.00;;;;;;;-0.38;86.95;94665.30;108615;1282;22557;-84
2024/01/15 01:16:14;;;;;;;4.30;3.80;;;;;;;-0.40;86.62;94658.19;108770;1277;22607;-85
2024/01/15 01:18:43;;;;;;;6.30;4.50;;;;;;;-0.41;86.80;94662.02;108644;1283;137617;-85
2024/01/15 01:21:11;;;;;;;5.70;4.40;;;;;;;-0.42;86.67;94662.09;108917;1275;22528;-85
2024/01/15 01:23:38;;;;;;;5.80;3.90;;;;;;;-0.41;87.20;94659.76;108698;1277;137079;-85
2024/01/15 01:26:05;;;;;;;6.10;4.20;;;;;;;-0.40;87.41;94656.41;108747;1276;23250;-85
2024/01/15 01:28:34;;;;;;;5.40;3.90;;;;;;;-0.43;87.84;94646.52;108585;1278;137559;-85
2024/01/15 01:31:01;;;;;;;5.10;4.10;;;;;;;-0.44;88.43;94651.75;108865;1281;22498;-85
2024/01/15 01:33:28;;;;;;;5.60;3.80;;;;;;;-0.49;88.47;94645.31;108794;1280;22647;-85
2024/01/15 01:35:56;;;;;;;5.40;4.70;;;;;;;-0.50;87.95;94640.98;108632;1262;136985;-85
2024/01/15 01:38:23;;;;;;;5.90;4.40;;;;;;;-0.47;87.29;94638.80;108701;1283;22582;-85
2024/01/15 01:40:49;;;;;;;4.50;3.20;;;;;;;-0.45;86.88;94631.50;108660;1275;137961;-85
2024/01/15 01:43:16;;;;;;;4.80;3.80;;;;;;;-0.45;86.90;94628.02;108605;1283;22673;-84
2024/01/15 01:45:43;;;;;;;4.70;3.50;;;;;;;-0.48;86.19;94625.44;108733;1280;22553;-85
2024/01/15 01:48:10;;;;;;;5.10;3.80;;;;;;;-0.50;85.97;94631.75;108557;1277;137525;-85
2024/01/15 01:50:37;;;;;;;4.70;3.70;;;;;;;-0.50;85.46;94627.90;108652;1281;25376;-85
2024/01/15 01:53:04;;;;;;;5.10;3.60;;;;;;;-0.47;85.66;94623.17;108480;1278;138775;-85
2024/01/15 01:55:31;;;;;;;6.50;4.10;;;;;;;-0.45;85.10;94616.03;108632;1280;22546;-85
2024/01/15 01:57:57;;;;;;;4.40;3.40;;;;;;;-0.43;85.04;94610.03;108624;1283;22753;-85
2024/01/15 02:00:25;;;;;;;8.50;4.00;;;;;;;-0.44;84.74;94601.61;108540;1280;136610;-85
2024/01/15 02:02:52;;;;;;;4.90;3.30;;;;;;;-0.46;84.19;94600.98;108655;1266;23013;-85
2024/01/15 02:05:20;;;;;;;4.80;3.40;;;;;;;-0.46;84.19;94600.63;108539;1280;137494;-85
2024/01/15 02:07:47;;;;;;;5.80;3.30;;;;;;;-0.47;83.86;94595.65;108738;1281;22570;-84
2024/01/15 02:10:15;;;;;;;4.00;3.50;;;;;;;-0.48;83.65;94594.21;108885;1281;24472;-84
2024/01/15 02:12:42;;;;;;;5.30;3.40;;;;;;;-0.47;83.76;94587.80;108633;1277;137095;-85
2024/01/15 02:15:09;;;;;;;4.60;3.30;;;;;;;-0.48;83.60;94583.50;108604;1283;22555;-84
2024/01/15 02:17:56;;;;;;;4.00;3.40;;;;;;;-0.48;83.73;94578.58;108536;1280;137760;-85
2024/01/15 02:20:23;;;;;;;4.50;4.00;;;;;;;-0.50;83.74;94572.30;108716;1276;22602;-87
2024/01/15 02:22:50;;;;;;;6.40;4.50;;;;;;;-0.52;84.33;94568.10;108786;1275;136536;-87
2024/01/15 02:25:16;;;;;;;4.90;4.10;;;;;;;-0.53;83.95;94573.49;108514;1280;23806;-85
2024/01/15 02:27:44;;;;;;;5.30;3.80;;;;;;;-0.53;84.69;94579.87;108405;1274;25969;-86
2024/01/15 02:30:13;;;;;;;5.10;4.00;;;;;;;-0.52;84.65;94582.68;108523;1275;138306;-85
2024/01/15 02:32:40;;;;;;;9.30;6.00;;;;;;;-0.51;84.51;94585.86;108732;1280;22510;-85
2024/01/15 02:35:07;;;;;;;5.80;4.30;;;;;;;-0.52;84.85;94584.33;108651;1259;138188;-85
2024/01/15 02:37:34;;;;;;;6.60;5.30;;;;;;;-0.56;84.34;94579.67;108674;1283;23162;-85
2024/01/15 02:40:01;;;;;;;5.80;4.80;;;;;;;-0.54;84.06;94578.69;108745;1281;22551;-85
2024/01/15 02:42:28;;;;;;;6.20;4.50;;;;;;;-0.53;84.42;94583.85;108652;1283;138257;-85
2024/01/15 02:44:55;;;;;;;4.70;4.00;;;;;;;-0.52;84.15;94576.36;108738;1277;22575;-85
2024/01/15 02:47:22;;;;;;;5.20;3.60;;;;;;;-0.50;84.04;94566.98;108639;1274;137066;-85
2024/01/15 02:49:48;;;;;;;6.10;3.70;;;;;;;-0.50;84.05;94571.45;108772;1280;22765;-85
2024/01/15 02:52:15;;;;;;;5.50;4.10;;;;;;;-0.52;83.93;94568.06;108743;1275;22548;-85
2024/01/15 02:54:42;;;;;;;6.50;4.40;;;;;;;-0.52;84.01;94569.09;108689;1260;137944;-85
2024/01/15 02:57:09;;;;;;;4.80;3.80;;;;;;;-0.53;83.61;94567.34;108842;1265;22666;-85
2024/01/15 02:59:36;;;;;;;5.50;4.20;;;;;;;-0.53;83.92;94556.14;108567;1276;138162;-85
2024/01/15 03:02:03;;;;;;;4.70;3.70;;;;;;;-0.54;83.64;94549.52;108631;1282;25426;-84
2024/01/15 03:04:30;;;;;;;5.30;3.50;;;;;;;-0.51;83.31;94539.36;108667;1275;138458;-85
2024/01/15 03:06:57;;;;;;;6.90;3.80;;;;;;;-0.50;83.33;94540.67;108743;1281;22687;-85
2024/01/15 03:09:24;;;;;;;4.30;3.40;;;;;;;-0.51;83.42;94537.14;108667;1282;25426;-85
2024/01/15 03:11:51;;;;;;;5.70;3.60;;;;;;;-0.52;83.54;94537.23;108650;1276;137629;-85
2024/01/15 03:14:20;;;;;;;4.50;3.60;;;;;;;-0.53;83.79;94531.05;108897;1278;22580;-84
2024/01/15 03:16:47;;;;;;;5.10;3.40;;;;;;;-0.53;83.64;94531.36;108660;1281;137297;-85
2024/01/15 03:19:14;;;;;;;5.10;3.40;;;;;;;-0.50;83.21;94526.89;108723;1283;22595;-85
2024/01/15 03:21:41;;;;;;;3.50;2.80;;;;;;;-0.48;83.34;94530.20;108703;1281;22540;-84
2024/01/15 03:24:07;;;;;;;3.60;3.20;;;;;;;-0.45;83.58;94524.77;108582;1277;136503;-84
2024/01/15 03:26:34;;;;;;;4.80;3.60;;;;;;;-0.45;83.76;94524.27;108710;1271;25976;-85
2024/01/15 03:29:01;;;;;;;5.00;3.40;;;;;;;-0.44;83.71;94523.53;108570;1278;136579;-85
2024/01/15 03:31:28;;;;;;;4.90;3.30;;;;;;;-0.48;83.47;94527.36;108754;1275;24261;-85
2024/01/15 03:33:55;;;;;;;5.30;3.80;;;;;;;-0.48;83.08;94525.26;108718;1280;22565;-84
2024/01/15 03:36:22;;;;;;;4.20;2.90;;;;;;;-0.43;83.61;94526.65;108650;1279;138302;-85
2024/01/15 03:38:49;;;;;;;3.10;2.70;;;;;;;-0.39;83.75;94529.80;108838;1275;22620;-87
2024/01/15 03:41:17;;;;;;;3.70;3.00;;;;;;;-0.37;83.40;94523.58;108895;1260;137862;-87
2024/01/15 03:43:44;;;;;;;3.90;2.90;;;;;;;-0.34;83.55;94520.77;109007;1275;22533;-87
2024/01/15 03:46:10;;;;;;;5.60;3.70;;;;;;;-0.35;83.15;94523.03;108737;1283;22523;-86
2024/01/15 03:48:37;;;;;;;5.20;4.00;;;;;;;-0.36;83.41;94518.18;108740;1282;137497;-85
2024/01/15 03:51:04;;;;;;;4.50;3.50;;;;;;;-0.39;83.11;94507.61;108643;1275;22615;-85
2024/01/15 03:53:31;;;;;;;5.80;3.60;;;;;;;-0.41;83.50;94504.52;108568;1278;137671;-85
2024/01/15 03:55:58;;;;;;;4.20;3.20;;;;;;;-0.45;83.19;94495.02;108589;1283;24313;-86
2024/01/15 03:58:24;;;;;;;4.60;3.60;;;;;;;-0.45;83.13;94486.34;108423;1275;22556;-86
2024/01/15 04:00:51;;;;;;;7.10;5.00;;;;;;;-0.44;83.24;94488.83;108358;1281;137609;-85
2024/01/15 04:03:18;;;;;;;4.50;3.60;;;;;;;-0.45;83.23;94485.74;108739;1283;22559;-85
2024/01/15 04:05:45;;;;;;;5.20;4.30;;;;;;;-0.47;83.52;94483.70;108589;1275;137701;-84
2024/01/15 04:08:13;;;;;;;4.30;2.90;;;;;;;-0.51;83.46;94482.52;108622;1275;23297;-86
2024/01/15 04:10:40;;;;;;;4.30;2.90;;;;;;;-0.53;83.76;94482.77;108323;1279;138041;-86
2024/01/15 04:13:07;;;;;;;5.40;3.40;;;;;;;-0.53;83.69;94476.64;108335;1283;23166;-85
2024/01/15 04:15:34;;;;;;;3.90;3.20;;;;;;;-0.53;83.29;94474.73;108384;1282;23078;-86
2024/01/15 04:18:01;;;;;;;61.70;24.70;;;;;;;-0.50;83.45;94479.60;108422;1283;138279;-85
2024/01/15 04:20:29;;;;;;;25.00;11.00;;;;;;;-0.51;83.76;94479.66;108674;1283;22543;-85
2024/01/15 04:22:55;;;;;;;39.20;15.90;;;;;;;-0.52;83.73;94477.09;108325;1282;137985;-86
2024/01/15 04:25:22;;;;;;;279.40;111.40;;;;;;;-0.55;83.89;94474.80;108362;1280;22535;-86
2024/01/15 04:27:49;;;;;;;103.20;39.60;;;;;;;-0.55;84.27;94471.95;108422;1275;22560;-86
2024/01/15 04:30:15;;;;;;;29.10;9.20;;;;;;;-0.56;84.08;94465.77;108404;1278;138648;-86
2024/01/15 04:32:42;;;;;;;38.90;11.60;;;;;;;-0.54;84.27;94471.04;108507;1283;22658;-86
2024/01/15 04:35:09;;;;;;;5.60;3.50;;;;;;;-0.55;84.27;94466.03;108249;1275;138275;-85
2024/01/15 04:37:35;;;;;;;60.40;26.30;;;;;;;-0.57;84.43;94465.33;108368;1283;22559;-85
2024/01/15 04:40:03;;;;;;;74.30;29.40;;;;;;;-0.57;84.29;94460.23;108323;1283;22568;-85
2024/01/15 04:42:30;;;;;;;62.70;23.30;;;;;;;-0.57;84.72;94457.87;108278;1283;138146;-85
2024/01/15 04:44:56;;;;;;;18.50;6.80;;;;;;;-0.57;84.56;94453.63;108505;1282;23123;-86
2024/01/15 04:47:23;;;;;;;6.40;3.70;;;;;;;-0.55;84.46;94459.67;108416;1281;138035;-85
2024/01/15 04:49:50;;;;;;;7.00;3.40;;;;;;;-0.52;84.78;94462.99;108306;1282;22537;-86
2024/01/15 04:52:16;;;;;;;9.30;5.80;;;;;;;-0.54;85.01;94464.89;108299;1283;22582;-86
2024/01/15 04:54:43;;;;;;;220.30;85.30;;;;;;;-0.57;85.07;94455.09;108227;1283;137345;-85
2024/01/15 04:57:09;;;;;;;146.20;47.10;;;;;;;-0.55;85.07;94461.48;108384;1278;22523;-86
2024/01/15 04:59:36;;;;;;;36.40;11.00;;;;;;;-0.55;85.20;94453.43;108244;1283;138985;-86
2024/01/15 05:02:03;;;;;;;18.60;6.40;;;;;;;-0.56;86.17;94459.11;108377;1281;22573;-85
2024/01/15 05:04:30;;;;;;;24.60;8.50;;;;;;;-0.57;86.27;94461.76;108223;1283;137738;-86
2024/01/15 05:06:56;;;;;;;39.70;12.80;;;;;;;-0.57;86.17;94467.11;108358;1283;23871;-86
2024/01/15 05:09:23;;;;;;;77.90;33.00;;;;;;;-0.59;86.35;94465.05;108432;1281;23139;-86
2024/01/15 05:11:51;;;;;;;67.60;26.60;;;;;;;-0.61;86.41;94461.45;108418;1275;138359;-85
2024/01/15 05:14:18;;;;;;;48.90;14.00;;;;;;;-0.59;86.69;94471.01;108702;1283;22561;-85
2024/01/15 05:16:48;;;;;;;24.90;7.80;;;;;;;-0.57;87.09;94468.71;108632;1278;138753;-85
2024/01/15 05:19:15;;;;;;;11.70;4.60;;;;;;;-0.55;87.19;94471.06;108732;1277;22638;-85
2024/01/15 05:21:42;;;;;;;78.00;34.20;;;;;;;-0.54;87.38;94467.59;108790;1274;24371;-85
2024/01/15 05:24:09;;;;;;;47.70;17.90;;;;;;;-0.54;87.42;94457.58;108776;1283;137999;-85
2024/01/15 05:26:36;;;;;;;25.90;7.30;;;;;;;-0.55;87.37;94447.23;108662;1275;22746;-85
2024/01/15 05:29:03;;;;;;;48.90;12.40;;;;;;;-0.54;87.45;94443.26;108623;1260;139330;-85
2024/01/15 05:31:30;;;;;;;9.00;3.90;;;;;;;-0.51;87.00;94436.10;108791;1283;22535;-84
2024/01/15 05:33:57;;;;;;;12.80;5.10;;;;;;;-0.49;86.47;94431.11;108623;1280;23792;-86
2024/01/15 05:36:24;;;;;;;41.90;19.80;;;;;;;-0.45;86.22;94421.09;108311;1283;137652;-86
2024/01/15 05:38:50;;;;;;;125.50;45.00;;;;;;;-0.43;85.85;94419.81;108768;1274;25365;-84
2024/01/15 05:41:17;;;;;;;21.60;7.00;;;;;;;-0.43;86.02;94414.87;108547;1283;138061;-86
2024/01/15 05:43:44;;;;;;;45.00;9.60;;;;;;;-0.42;85.78;94414.13;108477;1281;25257;-86
2024/01/15 05:46:10;;;;;;;5.10;2.80;;;;;;;-0.40;85.56;94407.98;108372;1283;22551;-86
2024/01/15 05:48:37;;;;;;;12.80;5.00;;;;;;;-0.38;84.75;94399.54;108264;1283;138178;-86
2024/01/15 05:51:04;;;;;;;8.30;4.10;;;;;;;-0.35;85.02;94394.23;108460;1283;22715;-86
2024/01/15 05:53:30;;;;;;;17.30;7.70;;;;;;;-0.33;84.78;94399.52;108205;1281;137606;-86
2024/01/15 05:55:57;;;;;;;13.60;5.40;;;;;;;-0.34;84.55;94393.27;108325;1281;22619;-86
2024/01/15 05:58:23;;;;;;;12.10;3.90;;;;;;;-0.34;84.45;94404.85;108352;1283;24295;-85
2024/01/15 06:00:50;;;;;;;13.30;6.50;;;;;;;-0.35;84.76;94405.48;108450;1283;137516;-87
2024/01/15 06:03:17;;;;;;;24.20;6.90;;;;;;;-0.37;84.82;94404.47;109034;1280;22633;-88
2024/01/15 06:05:44;;;;;;;53.10;23.60;;;;;;;-0.37;84.69;94396.73;108808;1276;138667;-86
2024/01/15 06:08:11;;;;;;;40.20;16.60;;;;;;;-0.35;84.15;94405.68;108505;1279;22622;-86
2024/01/15 06:10:39;;;;;;;65.00;18.00;;;;;;;-0.33;84.84;94407.98;108229;1283;137933;-86
2024/01/15 06:13:05;;;;;;;56.60;17.10;;;;;;;-0.34;84.71;94412.84;108367;1283;25536;-86
2024/01/15 06:15:32;;;;;;;42.60;12.90;;;;;;;-0.34;85.07;94413.05;108277;1280;22555;-85
2024/01/15 06:17:58;;;;;;;58.30;30.20;;;;;;;-0.37;85.03;94417.08;108237;1283;137968;-85
2024/01/15 06:20:30;;;;;;;76.90;30.50;;;;;;;-0.37;85.00;94424.03;108378;1283;22591;-86
2024/01/15 06:22:57;;;;;;;36.10;11.20;;;;;;;-0.34;85.11;94432.40;108104;1280;138989;-86
2024/01/15 06:25:23;;;;;;;37.20;10.50;;;;;;;-0.32;85.28;94426.98;108376;1283;22598;-86
2024/01/15 06:27:50;;;;;;;15.10;4.70;;;;;;;-0.32;85.00;94426.08;108334;1283;24320;-86
2024/01/15 06:30:17;;;;;;;23.30;7.40;;;;;;;-0.32;84.82;94432.05;108786;1283;137310;-87
2024/01/15 06:32:44;;;;;;;65.00;34.40;;;;;;;-0.31;85.13;94427.73;109025;1275;22601;-87
2024/01/15 06:35:11;;;;;;;74.10;32.00;;;;;;;-0.30;85.29;94429.65;108910;1283;137066;-87
2024/01/15 06:37:39;;;;;;;116.70;30.40;;;;;;;-0.30;85.35;94435.11;109107;1277;24163;-88
2024/01/15 06:40:08;;;;;;;70.90;18.70;;;;;;;-0.30;85.19;94431.02;108307;1283;24227;-86
2024/01/15 06:42:35;;;;;;;37.60;10.90;;;;;;;-0.29;85.07;94426.65;108377;1276;138218;-85
2024/01/15 06:45:02;;;;;;;47.80;21.80;;;;;;;-0.26;84.95;94430.42;108331;1283;22531;-86
2024/01/15 06:47:28;;;;;;;41.00;21.60;;;;;;;-0.24;84.80;94426.79;108187;1283;138234;-86
2024/01/15 06:49:55;;;;;;;12.10;5.30;;;;;;;-0.23;84.51;94423.34;108371;1283;22577;-86
2024/01/15 06:52:22;;;;;;;47.90;13.30;;;;;;;-0.24;84.46;94425.77;108311;1283;22534;-85
2024/01/15 06:54:48;;;;;;;17.80;7.40;;;;;;;-0.26;84.69;94433.34;108265;1278;137645;-85
2024/01/15 06:57:15;;;;;;;37.10;12.00;;;;;;;-0.28;84.98;94429.36;108213;1283;22529;-86
2024/01/15 06:59:41;;;;;;;29.10;17.40;;;;;;;-0.31;84.93;94427.59;108352;1276;137778;-86
2024/01/15 07:02:10;;;;;;;22.10;10.80;;;;;;;-0.31;84.84;94430.45;108626;1274;22565;-88
2024/01/15 07:04:37;;;;;;;46.90;12.80;;;;;;;-0.29;84.60;94443.14;108437;1281;138643;-86
2024/01/15 07:07:04;;;;;;;20.50;7.50;;;;;;;-0.26;84.74;94449.98;108383;1278;22510;-86
2024/01/15 07:09:32;;;;;;;26.80;9.70;;;;;;;-0.26;84.66;94454.96;108552;1282;22619;-85
2024/01/15 07:11:59;;;;;;;16.30;7.00;;;;;;;-0.26;84.94;94458.70;108418;1282;137692;-84
2024/01/15 07:14:26;;;;;;;54.30;30.00;;;;;;;-0.29;84.98;94462.91;108411;1281;23282;-84
2024/01/15 07:16:53;;;;;;;32.70;18.10;;;;;;;-0.29;85.36;94470.38;108319;1281;138289;-84
2024/01/15 07:19:19;;;;;;;60.10;18.70;;;;;;;-0.29;85.50;94465.83;108342;1283;23037;-85
2024/01/15 07:21:46;;;;;;;17.40;6.90;;;;;;;-0.30;85.65;94464.01;108520;1276;24176;-84
2024/01/15 07:24:15;;;;;;;19.80;8.70;;;;;;;-0.29;85.62;94473.80;108256;1282;138597;-84
2024/01/15 07:26:42;;;;;;;13.00;7.30;;;;;;;-0.26;85.83;94468.94;108375;1282;22585;-84
2024/01/15 07:29:08;;;;;;;24.70;11.40;;;;;;;-0.26;85.60;94472.64;108341;1282;137863;-84
2024/01/15 07:31:35;;;;;;;72.70;37.00;;;;;;;-0.26;85.83;94477.55;108319;1274;24337;-84
2024/01/15 07:34:02;;;;;;;41.00;17.10;;;;;;;-0.27;85.94;94479.53;108563;1278;23878;-85
2024/01/15 07:36:29;;;;;;;13.00;7.60;;;;;;;-0.28;85.86;94476.09;108215;1268;138270;-84
2024/01/15 07:38:55;;;;;;;9.50;5.90;;;;;;;-0.32;85.88;94468.11;108399;1280;22542;-85
2024/01/15 07:41:23;;;;;;;15.60;7.50;;;;;;;-0.35;86.14;94463.19;108302;1281;138383;-86
2024/01/15 07:43:54;;;;;;;17.00;9.30;;;;;;;-0.33;86.18;94465.50;108424;1279;22581;-84
2024/01/15 07:46:22;;;;;;;20.60;14.90;;;;;;;-0.28;85.96;94466.39;108623;1273;22624;-86
2024/01/15 07:48:55;;;;;;;28.30;11.10;;;;;;;-0.26;85.85;94458.02;108470;1281;139032;-85
2024/01/15 07:51:29;;;;;;;33.20;12.40;;;;;;;-0.26;85.80;94463.06;108651;1278;22543;-84
2024/01/15 07:54:02;;;;;;;29.00;11.10;;;;;;;-0.26;85.97;94461.73;108400;1281;137892;-85
2024/01/15 07:57:03;;;;;;;24.60;10.80;;;;;;;-0.27;85.80;94459.15;108425;1282;24392;-85
2024/01/15 07:59:30;;;;;;;24.00;18.00;;;;;;;-0.28;85.81;94465.06;108332;1279;138008;-86
2024/01/15 08:01:58;;;;;;;65.30;24.80;;;;;;;-0.27;85.59;94461.73;108500;1279;22582;-84
2024/01/15 08:04:25;;;;;;;54.00;21.80;;;;;;;-0.25;85.99;94461.63;108424;1283;22569;-85
2024/01/15 08:06:56;;;;;;;41.20;23.60;;;;;;;-0.21;85.76;94465.77;108267;1278;138931;-84
2024/01/15 08:09:23;;;;;;;38.00;20.90;;;;;;;-0.15;85.28;94467.14;108438;1278;22616;-84
2024/01/15 08:11:51;;;;;;;29.90;18.40;;;;;;;-0.09;85.16;94478.66;108317;1279;138488;-82
2024/01/15 08:14:18;;;;;;;42.30;23.00;;;;;;;-0.05;85.18;94494.13;108410;1281;22634;-82
2024/01/15 08:16:44;;;;;;;17.90;10.60;;;;;;;-0.01;84.89;94516.59;108444;1281;138077;-82
2024/01/15 08:19:11;;;;;;;13.40;8.30;;;;;;;0.01;84.52;94533.42;108559;1278;22628;-82
2024/01/15 08:21:38;;;;;;;13.80;9.20;;;;;;;0.01;84.24;94529.30;108516;1279;22488;-84
2024/01/15 08:24:04;;;;;;;20.50;13.60;;;;;;;0.02;84.56;94544.09;108392;1283;137568;-86
2024/01/15 08:26:32;;;;;;;14.90;8.90;;;;;;;0.00;84.33;94542.33;108316;1282;24008;-84
2024/01/15 08:28:58;;;;;;;11.50;7.30;;;;;;;-0.01;84.22;94536.83;108189;1279;138004;-85
2024/01/15 08:31:28;;;;;;;40.70;25.40;;;;;;;-0.01;84.21;94540.59;108377;1279;22531;-84
2024/01/15 08:33:55;;;;;;;16.20;10.60;;;;;;;-0.05;83.96;94541.17;108392;1264;22574;-84
2024/01/15 08:36:24;;;;;;;31.50;17.50;;;;;;;-0.09;84.70;94538.31;108352;1275;137981;-85
2024/01/15 08:38:54;;;;;;;12.70;8.30;;;;;;;-0.10;84.59;94539.98;108495;1282;22618;-83
2024/01/15 08:41:20;;;;;;;12.70;8.60;;;;;;;-0.13;84.73;94530.13;108281;1277;137906;-84
2024/01/15 08:43:47;;;;;;;6.60;5.10;;;;;;;-0.16;84.57;94533.30;108427;1278;22528;-84
2024/01/15 08:46:14;;;;;;;7.90;5.40;;;;;;;-0.18;84.08;94532.02;108346;1281;22565;-85
2024/01/15 08:48:40;;;;;;;11.20;7.50;;;;;;;-0.19;84.57;94534.20;108213;1283;139330;-85
2024/01/15 08:51:07;;;;;;;10.90;6.40;;;;;;;-0.21;84.63;94539.11;108477;1276;22537;-85
2024/01/15 08:53:34;;;;;;;9.40;6.80;;;;;;;-0.22;84.75;94539.37;108192;1279;137809;-84
2024/01/15 08:56:01;;;;;;;8.30;6.20;;;;;;;-0.24;83.88;94544.83;108540;1281;22618;-85
2024/01/15 08:58:28;;;;;;;12.10;6.90;;;;;;;-0.25;84.24;94544.19;108377;1276;22571;-83
2024/01/15 09:00:55;;;;;;;11.20;7.40;;;;;;;-0.24;84.26;94543.17;108385;1278;138152;-84
2024/01/15 09:03:21;;;;;;;15.10;8.50;;;;;;;-0.20;84.20;94542.59;108413;1280;24491;-83
2024/01/15 09:05:49;;;;;;;12.00;6.60;;;;;;;-0.16;84.22;94540.36;108374;1282;138031;-83
2024/01/15 09:08:16;;;;;;;11.10;7.90;;;;;;;-0.15;83.84;94537.98;108328;1282;22581;-84
2024/01/15 09:10:44;;;;;;;13.20;7.00;;;;;;;-0.16;83.00;94546.61;108397;1278;22610;-84
2024/01/15 09:13:20;;;;;;;11.80;7.70;;;;;;;-0.18;83.16;94549.73;108256;1283;22530;-84
2024/01/15 09:15:46;;;;;;;12.30;5.80;;;;;;;-0.19;83.24;94541.11;108373;1281;22576;-85
2024/01/15 09:18:13;;;;;;;10.90;6.50;;;;;;;-0.20;83.15;94537.77;108208;1282;138161;-84
2024/01/15 09:20:39;;;;;;;12.60;6.80;;;;;;;-0.19;82.62;94533.08;108445;1284;22561;-85
2024/01/15 09:23:06;;;;;;;10.70;7.30;;;;;;;-0.18;82.17;94533.02;108117;1283;138237;-83
2024/01/15 09:25:33;;;;;;;10.10;5.80;;;;;;;-0.17;82.33;94530.08;108388;1283;22565;-82
2024/01/15 09:27:59;;;;;;;13.70;9.20;;;;;;;-0.16;82.83;94528.88;108386;1283;22537;-86
2024/01/15 09:30:26;;;;;;;12.90;8.90;;;;;;;-0.14;83.04;94529.74;108353;1282;137680;-86
2024/01/15 09:32:53;;;;;;;13.00;7.40;;;;;;;-0.12;83.18;94532.08;108300;1283;26041;-86
2024/01/15 09:35:23;;;;;;;9.90;6.40;;;;;;;-0.10;83.17;94537.42;108558;1283;137824;-83
2024/01/15 09:37:56;;;;;;;10.10;6.10;;;;;;;-0.06;82.50;94536.04;108858;1275;22569;-84
2024/01/15 09:40:23;;;;;;;9.90;6.70;;;;;;;-0.05;82.43;94538.59;108356;1281;22571;-85
2024/01/15 09:42:50;;;;;;;6.80;4.70;;;;;;;-0.03;82.03;94540.75;108245;1280;137631;-84
2024/01/15 09:45:16;;;;;;;9.70;6.40;;;;;;;-0.06;81.90;94541.72;108324;1282;22566;-84
2024/01/15 09:47:43;;;;;;;12.50;7.60;;;;;;;-0.06;82.29;94538.36;108250;1283;137548;-84
2024/01/15 09:50:10;;;;;;;21.40;11.90;;;;;;;-0.06;82.67;94537.85;108436;1279;22591;-82
2024/01/15 09:52:36;;;;;;;14.80;9.10;;;;;;;-0.06;82.87;94547.52;108311;1283;22557;-82
2024/01/15 09:55:05;;;;;;;14.90;8.80;;;;;;;-0.01;82.69;94545.38;108168;1283;138349;-82
2024/01/15 09:57:31;;;;;;;11.00;7.20;;;;;;;0.03;81.74;94546.86;108385;1283;23782;-83
2024/01/15 09:59:59;;;;;;;16.30;10.30;;;;;;;0.03;82.45;94550.76;108181;1283;138177;-83
2024/01/15 10:02:25;;;;;;;15.10;9.10;;;;;;;0.01;82.40;94556.21;108464;1277;24524;-83
2024/01/15 10:04:52;;;;;;;15.70;10.60;;;;;;;-0.05;82.07;94553.74;108255;1273;138157;-83
2024/01/15 10:07:19;;;;;;;14.30;9.40;;;;;;;-0.11;83.03;94556.38;108449;1279;22576;-83
2024/01/15 10:09:47;;;;;;;18.00;11.50;;;;;;;-0.13;82.58;94559.07;108328;1282;22532;-82
2024/01/15 10:12:13;;;;;;;13.00;8.10;;;;;;;-0.16;82.80;94561.20;108341;1261;138480;-83
2024/01/15 10:14:40;;;;;;;13.80;8.30;;;;;;;-0.16;82.82;94553.87;108428;1277;23357;-83
2024/01/15 10:17:17;;;;;;;12.70;8.20;;;;;;;-0.19;82.81;94559.11;108302;1277;137797;-83
2024/01/15 10:19:49;;;;;;;14.20;9.10;;;;;;;-0.21;82.69;94553.46;108265;1277;23048;-84
2024/01/15 10:22:16;;;;;;;11.60;8.00;;;;;;;-0.23;82.85;94550.54;108540;1264;24765;-84
2024/01/15 10:24:42;;;;;;;10.10;7.20;;;;;;;-0.27;82.21;94553.87;108340;1282;137641;-82
2024/01/15 10:27:10;;;;;;;15.30;9.50;;;;;;;-0.33;82.66;94556.16;108445;1278;22577;-85
2024/01/15 10:29:36;;;;;;;20.20;12.70;;;;;;;-0.39;82.15;94560.68;108297;1275;138310;-83
2024/01/15 10:32:08;;;;;;;13.70;9.50;;;;;;;-0.39;81.99;94555.96;108426;1280;23264;-84
2024/01/15 10:34:37;;;;;;;14.70;10.00;;;;;;;-0.40;82.36;94556.95;108546;1277;22602;-84
2024/01/15 10:37:04;;;;;;;15.70;8.00;;;;;;;-0.42;82.38;94564.26;108309;1282;136923;-84
2024/01/15 10:39:31;;;;;;;13.20;7.80;;;;;;;-0.46;82.53;94563.53;108412;1276;22559;-84
2024/01/15 10:41:57;;;;;;;12.70;8.30;;;;;;;-0.50;82.40;94573.80;108368;1282;137950;-86
2024/01/15 10:44:25;;;;;;;10.60;7.20;;;;;;;-0.51;82.07;94565.42;108414;1280;22579;-85
2024/01/15 10:46:52;;;;;;;12.30;7.40;;;;;;;-0.48;82.39;94566.66;108351;1264;138450;-86
2024/01/15 10:49:20;;;;;;;10.30;7.70;;;;;;;-0.46;82.15;94555.65;108394;1281;22555;-85
2024/01/15 10:51:46;;;;;;;9.10;6.00;;;;;;;-0.47;81.52;94555.43;108366;1282;23003;-83
2024/01/15 10:54:13;;;;;;;13.70;9.00;;;;;;;-0.48;81.86;94559.13;108235;1282;137549;-83
2024/01/15 10:56:39;;;;;;;10.70;7.80;;;;;;;-0.47;82.44;94560.41;108471;1282;22546;-84
2024/01/15 10:59:07;;;;;;;12.40;6.70;;;;;;;-0.45;82.62;94563.40;108299;1277;138161;-86
2024/01/15 11:01:34;;;;;;;12.00;8.20;;;;;;;-0.45;82.27;94567.48;108462;1282;24165;-86
2024/01/15 11:04:01;;;;;;;13.00;7.60;;;;;;;-0.42;82.30;94560.71;108550;1276;23721;-86
2024/01/15 11:06:28;;;;;;;13.80;9.10;;;;;;;-0.39;81.49;94554.31;108184;1275;138043;-86
2024/01/15 11:08:55;;;;;;;10.30;6.90;;;;;;;-0.38;81.66;94564.58;108281;1282;22773;-86
2024/01/15 11:11:26;;;;;;;11.40;8.10;;;;;;;-0.38;80.99;94563.33;108158;1282;137854;-85
2024/01/15 11:13:53;;;;;;;14.90;8.60;;;;;;;-0.40;80.95;94578.52;108212;1282;25326;-84